createdAt,value
2018-09-05T13:39:51.919Z,57.40
2018-09-05T13:42:22.748Z,57.40
2018-09-05T13:44:53.676Z,58.30
2018-09-05T13:47:25.556Z,58.70
2018-09-05T13:49:56.420Z,58.10
2018-09-05T13:52:27.221Z,57.90
2018-09-05T13:54:58.848Z,57.90
2018-09-05T13:57:30.339Z,58.50
2018-09-05T14:00:03.882Z,58.60
2018-09-05T14:02:37.072Z,58.90
2018-09-05T14:05:07.903Z,59.60
2018-09-05T14:07:38.642Z,60.50
2018-09-05T14:10:16.158Z,61.00
2018-09-05T14:12:47.702Z,60.60
2018-09-05T14:15:18.679Z,60.50
2018-09-05T14:17:50.780Z,60.90
2018-09-05T14:20:21.741Z,61.10
2018-09-05T14:22:52.701Z,61.00
2018-09-05T14:25:29.775Z,61.80
2018-09-05T14:28:00.691Z,62.40
2018-09-05T14:30:32.288Z,61.80
2018-09-05T14:33:03.220Z,62.20
2018-09-05T14:35:34.009Z,61.10
2018-09-05T14:38:04.857Z,61.60
2018-09-05T14:40:37.510Z,62.10
2018-09-05T14:43:09.089Z,62.10
2018-09-05T14:45:39.855Z,62.20
2018-09-05T14:48:10.677Z,63.10
2018-09-05T14:50:41.521Z,63.10
2018-09-05T14:53:18.598Z,63.60
2018-09-05T14:55:49.539Z,63.90
2018-09-05T14:58:20.753Z,64.20
2018-09-05T15:00:52.229Z,64.40
2018-09-05T15:03:23.229Z,65.00
2018-09-05T15:05:54.094Z,65.60
2018-09-05T15:08:25.092Z,64.80
2018-09-05T15:10:56.261Z,65.00
2018-09-05T15:13:27.271Z,65.30
2018-09-05T15:16:00.044Z,65.40
2018-09-05T15:18:30.983Z,65.00
2018-09-05T15:21:01.840Z,65.60
2018-09-05T15:23:32.964Z,68.20
2018-09-05T15:26:04.334Z,66.60
2018-09-05T15:28:35.367Z,67.10
2018-09-05T15:31:06.830Z,68.70
2018-09-05T15:33:38.488Z,68.00
2018-09-05T15:36:10.315Z,67.30
2018-09-05T15:38:41.317Z,67.70
2018-09-05T15:41:13.529Z,68.80
2018-09-05T15:43:44.423Z,69.60
2018-09-05T16:06:28.248Z,73.60
2018-09-05T16:08:59.683Z,75.30
2018-09-05T16:11:31.486Z,76.00
2018-09-05T16:14:02.233Z,76.60
2018-09-05T16:16:32.982Z,76.50
2018-09-05T16:19:03.760Z,76.90
2018-09-05T16:21:34.841Z,77.20
2018-09-05T16:24:06.342Z,77.90
2018-09-05T16:26:37.782Z,78.60
2018-09-05T16:29:08.408Z,79.50
2018-09-05T16:31:39.212Z,80.10
2018-09-05T16:34:13.340Z,81.10
2018-09-05T16:36:44.448Z,82.00
2018-09-05T16:39:15.229Z,82.00
2018-09-05T16:42:04.358Z,82.90
2018-09-05T16:44:37.884Z,82.90
2018-09-05T16:47:09.035Z,84.60
2018-09-05T16:56:14.029Z,84.80
2018-09-05T16:58:47.195Z,86.60
2018-09-05T17:01:19.793Z,86.70
2018-09-05T19:25:13.120Z,99.20
2018-09-05T19:27:43.854Z,99.20
2018-09-05T19:30:14.788Z,99.40
2018-09-05T19:32:45.538Z,99.50
2018-09-05T19:35:17.951Z,99.60
2018-09-05T19:42:39.378Z,99.90
2018-09-05T19:45:11.476Z,99.60
2018-09-05T19:47:43.763Z,99.90
2018-09-05T19:50:14.702Z,99.90
2018-09-05T19:52:45.492Z,99.90
2018-09-05T19:55:16.507Z,99.90
2018-09-05T19:57:47.756Z,99.90
2018-09-05T20:00:19.237Z,99.90
2018-09-05T20:02:51.224Z,99.90
2018-09-05T20:05:24.591Z,99.90
2018-09-05T20:07:56.027Z,99.90
2018-09-05T20:10:27.255Z,99.90
2018-09-05T20:12:59.115Z,99.90
2018-09-05T20:15:29.985Z,99.90
2018-09-05T20:18:02.180Z,99.90
2018-09-05T20:20:34.138Z,99.90
2018-09-05T20:23:05.221Z,99.90
2018-09-05T20:25:36.716Z,99.90
2018-09-05T20:28:09.370Z,99.90
2018-09-05T21:12:35.318Z,99.90
2018-09-05T21:15:07.671Z,99.90
2018-09-05T22:25:16.936Z,99.90
2018-09-05T22:27:49.423Z,99.90
2018-09-05T22:30:33.186Z,99.90
2018-09-05T22:33:04.639Z,99.90
2018-09-05T22:35:50.123Z,99.90
2018-09-05T22:38:32.567Z,99.90
2018-09-05T22:41:04.182Z,99.90
2018-09-05T22:43:51.471Z,99.90
2018-09-05T22:46:39.899Z,99.90
2018-09-05T22:55:44.415Z,99.90
2018-09-05T23:00:36.993Z,99.90
2018-09-05T23:05:33.633Z,99.90
2018-09-05T23:09:17.755Z,99.90
2018-09-05T23:12:05.976Z,99.90
2018-09-05T23:30:21.012Z,99.90
2018-09-05T23:32:52.013Z,99.90
2018-09-05T23:35:36.383Z,99.90
2018-09-05T23:38:07.381Z,99.90
2018-09-05T23:40:38.420Z,99.90
2018-09-05T23:43:18.184Z,99.90
2018-09-05T23:45:49.177Z,99.90
2018-09-05T23:48:27.925Z,99.90
2018-09-05T23:51:00.511Z,99.90
2018-09-05T23:53:32.772Z,99.90
2018-09-05T23:58:45.808Z,99.90
